createdAt,value
2022-08-16T00:01:09.829Z,3.88
2022-08-16T00:06:15.478Z,3.95
2022-08-16T00:11:18.916Z,3.70
2022-08-16T00:17:01.261Z,3.78
2022-08-16T00:21:57.074Z,4.18
2022-08-16T00:27:05.508Z,3.63
2022-08-16T00:32:12.051Z,3.63
2022-08-16T00:37:25.089Z,4.32
2022-08-16T00:42:48.370Z,4.18
2022-08-16T00:47:57.726Z,3.65
2022-08-16T00:53:00.762Z,3.75
2022-08-16T00:58:04.692Z,3.80
2022-08-16T01:03:20.004Z,3.15
2022-08-16T01:08:36.969Z,3.47
2022-08-16T01:13:42.926Z,4.05
2022-08-16T01:19:15.406Z,3.80
2022-08-16T01:24:52.573Z,3.88
2022-08-16T01:30:20.047Z,3.63
2022-08-16T01:35:52.618Z,3.40
2022-08-16T01:41:03.318Z,3.95
2022-08-16T01:46:37.978Z,3.67
2022-08-16T01:51:46.967Z,3.30
2022-08-16T01:56:49.838Z,3.80
2022-08-16T02:01:59.515Z,3.65
2022-08-16T02:07:11.136Z,3.88
2022-08-16T02:12:49.590Z,3.90
2022-08-16T02:17:39.231Z,3.90
2022-08-16T02:22:43.296Z,4.07
2022-08-16T02:27:51.107Z,3.30
2022-08-16T02:32:55.240Z,3.58
2022-08-16T02:38:01.809Z,3.30
2022-08-16T02:43:11.845Z,3.28
2022-08-16T02:48:30.092Z,3.38
2022-08-16T02:53:35.993Z,3.22
2022-08-16T02:58:39.381Z,3.35
2022-08-16T03:04:39.926Z,3.67
2022-08-16T03:09:08.830Z,5.30
2022-08-16T03:14:21.138Z,4.82
2022-08-16T03:19:47.575Z,4.25
2022-08-16T03:24:54.068Z,3.25
2022-08-16T03:30:17.524Z,13.25
2022-08-16T03:35:33.371Z,6.20
2022-08-16T03:40:38.327Z,4.70
2022-08-16T03:45:41.721Z,3.75
2022-08-16T03:51:00.081Z,3.97
2022-08-16T03:56:04.507Z,3.78
2022-08-16T04:01:10.641Z,5.28
2022-08-16T04:06:16.275Z,3.90
2022-08-16T04:11:23.789Z,3.88
2022-08-16T04:16:28.326Z,4.30
2022-08-16T04:21:34.603Z,3.42
2022-08-16T04:26:37.655Z,3.67
2022-08-16T04:31:56.615Z,3.95
2022-08-16T04:37:02.096Z,4.38
2022-08-16T04:42:11.173Z,4.38
2022-08-16T04:47:23.878Z,4.43
2022-08-16T04:52:33.645Z,3.78
2022-08-16T04:57:39.374Z,4.60
2022-08-16T05:02:44.371Z,4.45
2022-08-16T05:07:59.579Z,4.10
2022-08-16T05:13:06.363Z,4.70
2022-08-16T05:18:16.173Z,4.22
2022-08-16T05:23:19.609Z,4.15
2022-08-16T05:28:37.437Z,4.22
2022-08-16T05:33:42.266Z,4.13
2022-08-16T05:38:46.465Z,4.35
2022-08-16T05:43:50.138Z,4.28
2022-08-16T05:48:54.855Z,3.90
2022-08-16T05:54:01.142Z,3.80
2022-08-16T05:59:06.636Z,4.30
2022-08-16T06:04:35.003Z,4.25
2022-08-16T06:09:44.471Z,4.55
2022-08-16T06:14:48.880Z,4.63
2022-08-16T06:19:55.963Z,4.32
2022-08-16T06:25:00.710Z,4.07
2022-08-16T06:30:05.428Z,4.40
2022-08-16T06:35:12.764Z,4.00
2022-08-16T06:40:16.941Z,3.80
2022-08-16T06:45:22.375Z,3.78
2022-08-16T06:50:29.519Z,4.00
2022-08-16T06:55:38.109Z,3.85
2022-08-16T07:00:43.253Z,4.03
2022-08-16T07:05:47.533Z,4.13
2022-08-16T07:10:53.001Z,3.70
2022-08-16T07:15:59.819Z,3.67
2022-08-16T07:21:04.066Z,3.78
2022-08-16T07:26:24.784Z,3.58
2022-08-16T07:31:37.442Z,3.60
2022-08-16T07:36:42.493Z,3.33
2022-08-16T07:41:48.647Z,3.65
2022-08-16T07:46:56.227Z,3.95
2022-08-16T07:51:59.349Z,3.40
2022-08-16T07:57:04.283Z,3.13
2022-08-16T08:02:11.894Z,2.55
2022-08-16T08:07:16.339Z,2.97
2022-08-16T08:12:32.267Z,3.30
2022-08-16T08:17:43.048Z,3.47
2022-08-16T08:22:49.381Z,2.90
2022-08-16T08:27:57.683Z,2.10
2022-08-16T08:33:01.422Z,2.70
2022-08-16T08:38:08.624Z,2.80
2022-08-16T08:43:18.325Z,2.53
2022-08-16T08:48:34.111Z,2.50
2022-08-16T08:53:39.790Z,2.70
2022-08-16T08:58:54.264Z,2.58
2022-08-16T09:04:03.596Z,2.30
2022-08-16T09:09:09.601Z,2.40
2022-08-16T09:14:24.319Z,2.33
2022-08-16T09:19:33.160Z,2.00
2022-08-16T09:24:51.366Z,2.80
2022-08-16T09:29:59.835Z,2.35
2022-08-16T09:35:05.470Z,2.70
2022-08-16T09:40:31.840Z,2.30
2022-08-16T09:45:39.029Z,2.60
2022-08-16T09:50:44.619Z,2.10
2022-08-16T09:55:56.765Z,2.38
2022-08-16T10:01:01.180Z,2.35
2022-08-16T10:06:04.157Z,2.70
2022-08-16T10:11:25.585Z,2.40
2022-08-16T10:16:29.382Z,2.75
2022-08-16T10:21:32.297Z,2.80
2022-08-16T10:27:20.419Z,2.58
2022-08-16T10:32:00.609Z,3.20
2022-08-16T10:37:06.606Z,3.08
2022-08-16T10:42:13.344Z,3.13
2022-08-16T10:47:16.518Z,2.55
2022-08-16T10:52:20.270Z,2.83
2022-08-16T10:57:24.420Z,2.78
2022-08-16T11:02:58.248Z,2.80
2022-08-16T11:07:53.767Z,2.53
2022-08-16T11:13:20.801Z,2.80
2022-08-16T11:19:04.911Z,2.70
2022-08-16T11:23:57.458Z,3.13
2022-08-16T11:29:17.024Z,3.25
2022-08-16T11:34:21.065Z,2.97
2022-08-16T11:39:24.224Z,3.10
2022-08-16T11:44:52.722Z,3.20
2022-08-16T11:49:49.961Z,2.83
2022-08-16T11:54:53.743Z,2.63
2022-08-16T12:00:00.651Z,2.88
2022-08-16T12:05:09.031Z,2.80
2022-08-16T12:10:19.391Z,3.00
2022-08-16T12:15:22.595Z,3.00
2022-08-16T12:20:33.062Z,2.65
2022-08-16T12:25:38.341Z,3.05
2022-08-16T12:30:46.160Z,4.15
2022-08-16T12:35:49.698Z,3.72
2022-08-16T12:40:55.718Z,3.17
2022-08-16T12:46:02.058Z,2.53
2022-08-16T12:51:13.543Z,2.50
2022-08-16T12:56:32.756Z,2.70
2022-08-16T13:01:38.629Z,2.53
2022-08-16T13:06:44.789Z,2.67
2022-08-16T13:12:25.073Z,2.00
2022-08-16T13:17:29.715Z,2.60
2022-08-16T13:22:33.429Z,2.53
2022-08-16T13:28:03.171Z,2.65
2022-08-16T13:32:59.826Z,2.42
2022-08-16T13:38:03.764Z,2.80
2022-08-16T13:43:11.447Z,2.83
2022-08-16T13:48:24.661Z,4.28
2022-08-16T13:53:28.667Z,3.80
2022-08-16T13:58:36.595Z,3.70
2022-08-16T14:03:41.990Z,3.30
2022-08-16T14:08:59.272Z,3.47
2022-08-16T14:14:11.254Z,3.38
2022-08-16T14:19:18.396Z,2.35
2022-08-16T14:24:30.112Z,2.70
2022-08-16T14:29:35.107Z,2.88
2022-08-16T14:34:41.788Z,2.63
2022-08-16T14:39:45.511Z,2.35
2022-08-16T14:44:50.173Z,2.80
2022-08-16T14:49:52.991Z,2.38
2022-08-16T14:54:55.911Z,2.90
2022-08-16T15:00:05.809Z,3.00
2022-08-16T15:05:11.318Z,2.88
2022-08-16T15:10:24.123Z,3.10
2022-08-16T15:15:29.789Z,2.40
2022-08-16T15:20:35.648Z,2.92
2022-08-16T15:25:47.381Z,2.55
2022-08-16T15:31:10.051Z,2.40
2022-08-16T15:36:20.823Z,2.70
2022-08-16T15:41:42.522Z,2.42
2022-08-16T15:46:56.469Z,2.60
2022-08-16T15:52:01.969Z,2.60
2022-08-16T15:57:11.993Z,2.67
2022-08-16T16:02:19.314Z,2.20
2022-08-16T16:07:32.217Z,2.40
2022-08-16T16:12:50.990Z,2.47
2022-08-16T16:17:58.413Z,2.30
2022-08-16T16:23:10.636Z,2.22
2022-08-16T16:28:51.364Z,2.60
2022-08-16T16:33:43.517Z,2.65
2022-08-16T16:38:48.630Z,2.83
2022-08-16T16:43:54.021Z,2.85
2022-08-16T16:48:57.021Z,2.67
2022-08-16T16:54:02.706Z,2.40
2022-08-16T16:59:10.218Z,2.75
2022-08-16T17:04:19.800Z,2.80
2022-08-16T17:09:24.979Z,2.70
2022-08-16T17:14:33.813Z,2.75
2022-08-16T17:19:41.228Z,3.00
2022-08-16T17:24:52.555Z,2.70
2022-08-16T17:29:55.521Z,3.00
2022-08-16T17:35:03.045Z,2.90
2022-08-16T17:40:40.503Z,2.60
2022-08-16T17:45:40.222Z,3.40
2022-08-16T17:50:43.897Z,3.60
2022-08-16T17:55:50.609Z,3.40
2022-08-16T18:01:00.022Z,5.05
2022-08-16T18:06:05.861Z,4.53
2022-08-16T18:11:08.808Z,3.97
2022-08-16T18:16:16.584Z,4.45
2022-08-16T18:21:38.533Z,4.20
2022-08-16T18:26:41.771Z,4.68
2022-08-16T18:31:44.845Z,4.90
2022-08-16T18:36:48.850Z,4.43
2022-08-16T18:41:52.076Z,3.97
2022-08-16T18:46:55.604Z,3.95
2022-08-16T18:52:01.917Z,4.20
2022-08-16T18:57:08.013Z,3.95
2022-08-16T19:02:56.906Z,4.03
2022-08-16T19:07:34.152Z,4.25
2022-08-16T19:12:42.171Z,4.15
2022-08-16T19:17:46.330Z,3.67
2022-08-16T19:23:06.327Z,3.83
2022-08-16T19:28:21.830Z,3.90
2022-08-16T19:33:37.886Z,3.90
2022-08-16T19:38:40.922Z,3.42
2022-08-16T19:43:44.835Z,3.67
2022-08-16T19:48:47.691Z,3.45
2022-08-16T19:53:50.465Z,3.60
2022-08-16T20:04:16.993Z,3.40
2022-08-16T20:09:21.638Z,3.55
2022-08-16T20:14:26.557Z,2.95
2022-08-16T20:19:40.167Z,3.17
2022-08-16T20:24:43.766Z,3.20
2022-08-16T20:29:48.511Z,3.10
2022-08-16T20:34:54.147Z,3.33
2022-08-16T20:40:27.212Z,3.33
2022-08-16T20:45:21.557Z,3.33
2022-08-16T20:50:26.994Z,3.40
2022-08-16T20:55:30.846Z,3.63
2022-08-16T21:00:33.796Z,3.45
2022-08-16T21:05:37.394Z,3.97
2022-08-16T21:10:40.410Z,3.33
2022-08-16T21:15:43.951Z,3.38
2022-08-16T21:20:47.259Z,3.50
2022-08-16T21:25:57.803Z,3.35
2022-08-16T21:31:02.252Z,3.45
2022-08-16T21:36:05.595Z,3.80
2022-08-16T21:41:10.345Z,3.08
2022-08-16T21:46:13.440Z,3.53
2022-08-16T21:51:16.378Z,3.97
2022-08-16T21:56:19.578Z,3.47
2022-08-16T22:01:23.418Z,3.83
2022-08-16T22:06:26.683Z,3.67
2022-08-16T22:11:29.696Z,3.65
2022-08-16T22:16:38.004Z,3.70
2022-08-16T22:21:41.592Z,3.85
2022-08-16T22:26:44.652Z,3.72
2022-08-16T22:31:48.036Z,4.15
2022-08-16T22:36:51.660Z,4.07
2022-08-16T22:41:54.791Z,4.30
2022-08-16T22:46:57.663Z,4.80
2022-08-16T22:52:07.293Z,4.18
2022-08-16T22:57:10.452Z,4.85
2022-08-16T23:02:13.752Z,4.13
2022-08-16T23:07:16.887Z,4.38
2022-08-16T23:12:20.856Z,5.00
2022-08-16T23:17:32.683Z,4.50
2022-08-16T23:23:21.210Z,4.15
2022-08-16T23:28:14.388Z,4.28
2022-08-16T23:33:19.879Z,4.43
2022-08-16T23:38:38.076Z,4.50
2022-08-16T23:43:43.894Z,4.80
2022-08-16T23:49:56.240Z,4.90
2022-08-16T23:54:11.777Z,4.55
2022-08-16T23:59:14.717Z,4.63
